G.bellini — IKGF — position and weather

sailwx.info

Track history (hours):
 
Tides and Currents Weather Stations Pressure Air Temp Water Temp Dewpoint Dewpoint Depression Visibility Wind Speed Wind Dir Waves Ship Positions

G.bellini

Last reported at 2014-Aug-30 17:33 UTC. Time now 2014-Aug-31 04:34 UTC.
Position N 42°52' E 010°30'.

Length 72 m; draft 3.6 m.

Type: Ship. MMSI: 247041900.

Date/timePositionNaut miles runAvg speedWind from/ knotsBaromVisibWave heightAir tempDewpointWater temp
2014-Aug-30 17:33N 42°52' E 010°30'2 1.7
2014-Aug-30 16:27N 42°53' E 010°32'5 5.3
2014-Aug-30 15:26N 42°49' E 010°27'8 8.8
2014-Aug-30 14:33N 42°56' E 010°33'1 0.4
2014-Aug-30 12:28N 42°55' E 010°33'1 0.7
2014-Aug-30 11:17N 42°56' E 010°33'5 2.7
2014-Aug-30 09:33N 42°52' E 010°30'4 3.8
2014-Aug-30 08:31N 42°55' E 010°33'1 0.4
2014-Aug-30 06:33N 42°54' E 010°32'1 0.8
2014-Aug-30 05:31N 42°55' E 010°33'3 0.3
2014-Aug-29 17:33N 42°52' E 010°30'0 0.2
2014-Aug-29 16:20N 42°52' E 010°30'4 4.5
2014-Aug-29 15:30N 42°49' E 010°27'5 1.6
2014-Aug-29 12:33N 42°53' E 010°31'3 2.5
2014-Aug-29 11:10N 42°56' E 010°34'5 3.3
2014-Aug-29 09:33N 42°51' E 010°30'3 0.2
2014-Aug-28 16:09N 42°49' E 010°27'3 1.0
2014-Aug-28 13:33N 42°51' E 010°29'1 0.4
2014-Aug-28 11:33N 42°51' E 010°28'6 2.1
2014-Aug-28 08:33N 42°56' E 010°34'2 0.8
2014-Aug-28 06:33N 42°54' E 010°32'7 0.2
2014-Aug-26 16:11N 42°49' E 010°27'8 7.8
2014-Aug-26 15:07N 42°56' E 010°33'14 8.7
2014-Aug-26 13:30N 42°43' E 010°27'7 1.4
2014-Aug-26 08:25N 42°39' E 010°18'  
Track history (hours):
 
Tides and Currents Weather Stations Pressure Air Temp Water Temp Dewpoint Dewpoint Depression Visibility Wind Speed Wind Dir Waves Ship Positions

G.bellini

Last reported at 2014-Aug-30 17:33 UTC. Time now 2014-Aug-31 04:34 UTC.
Position N 42°52' E 010°30'.

Length 72 m; draft 3.6 m.

Type: Ship. MMSI: 247041900.

Date/timePositionNaut miles runAvg speedWind from/ knotsBaromVisibWave heightAir tempDewpointWater temp
2014-Aug-30 17:33N 42°52' E 010°30'2 1.7
2014-Aug-30 16:27N 42°53' E 010°32'5 5.3
2014-Aug-30 15:26N 42°49' E 010°27'8 8.8
2014-Aug-30 14:33N 42°56' E 010°33'1 0.4
2014-Aug-30 12:28N 42°55' E 010°33'1 0.7
2014-Aug-30 11:17N 42°56' E 010°33'5 2.7
2014-Aug-30 09:33N 42°52' E 010°30'4 3.8
2014-Aug-30 08:31N 42°55' E 010°33'1 0.4
2014-Aug-30 06:33N 42°54' E 010°32'1 0.8
2014-Aug-30 05:31N 42°55' E 010°33'3 0.3
2014-Aug-29 17:33N 42°52' E 010°30'0 0.2
2014-Aug-29 16:20N 42°52' E 010°30'4 4.5
2014-Aug-29 15:30N 42°49' E 010°27'5 1.6
2014-Aug-29 12:33N 42°53' E 010°31'3 2.5
2014-Aug-29 11:10N 42°56' E 010°34'5 3.3
2014-Aug-29 09:33N 42°51' E 010°30'3 0.2
2014-Aug-28 16:09N 42°49' E 010°27'3 1.0
2014-Aug-28 13:33N 42°51' E 010°29'1 0.4
2014-Aug-28 11:33N 42°51' E 010°28'6 2.1
2014-Aug-28 08:33N 42°56' E 010°34'2 0.8
2014-Aug-28 06:33N 42°54' E 010°32'7 0.2
2014-Aug-26 16:11N 42°49' E 010°27'8 7.8
2014-Aug-26 15:07N 42°56' E 010°33'14 8.7
2014-Aug-26 13:30N 42°43' E 010°27'7 1.4
2014-Aug-26 08:25N 42°39' E 010°18'  

Dump ship's entire track history